createdAt,value
2022-12-19T00:00:46.232Z,44.1
2022-12-19T00:07:05.907Z,44.1
2022-12-19T00:13:29.074Z,39.8
2022-12-19T00:19:49.209Z,39.8
2022-12-19T00:26:12.003Z,34.7
2022-12-19T00:32:31.921Z,34.7
2022-12-19T00:38:55.057Z,39.2
2022-12-19T00:45:14.911Z,39.2
2022-12-19T00:51:38.259Z,48.4
2022-12-19T00:57:59.597Z,48.4
2022-12-19T01:04:29.374Z,49.2
2022-12-19T01:10:40.917Z,49.2
2022-12-19T01:17:04.078Z,32.2
2022-12-19T01:23:24.000Z,32.2
2022-12-19T01:29:52.630Z,30.9
2022-12-19T01:36:07.127Z,30.9
2022-12-19T01:42:29.912Z,52
2022-12-19T01:48:49.935Z,52
2022-12-19T01:55:13.121Z,35.7
2022-12-19T02:01:33.143Z,35.7
2022-12-19T02:07:55.945Z,54.5
2022-12-19T02:14:16.248Z,54.5
2022-12-19T02:20:38.974Z,41
2022-12-19T02:26:59.103Z,41
2022-12-19T02:33:22.114Z,34.7
2022-12-19T02:39:41.906Z,34.7
2022-12-19T02:46:04.984Z,38.4
2022-12-19T02:52:25.026Z,38.4
2022-12-19T02:58:48.087Z,35.3
2022-12-19T03:05:08.061Z,35.3
2022-12-19T03:11:31.165Z,55.4
2022-12-19T03:17:51.082Z,55.4
2022-12-19T03:24:13.961Z,33.1
2022-12-19T03:30:34.262Z,33.1
2022-12-19T03:36:57.141Z,49.7
2022-12-19T03:43:17.067Z,49.7
2022-12-19T03:49:40.046Z,29.5
2022-12-19T03:56:00.133Z,29.5
2022-12-19T04:02:23.004Z,33.2
2022-12-19T04:25:47.065Z,33.6
2022-12-19T04:32:06.901Z,33.6
2022-12-19T04:38:29.920Z,37.6
2022-12-19T04:44:50.032Z,37.6
2022-12-19T04:51:12.950Z,51.1
2022-12-19T04:57:33.024Z,51.1
2022-12-19T05:03:59.985Z,50.5
2022-12-19T05:10:15.899Z,50.5
2022-12-19T05:16:38.949Z,42.3
2022-12-19T05:23:01.888Z,42.3
2022-12-19T05:29:21.900Z,36.5
2022-12-19T05:35:41.975Z,36.5
2022-12-19T05:42:08.439Z,115.6
2022-12-19T05:48:25.085Z,115.6
2022-12-19T05:54:47.993Z,42.8
2022-12-19T06:01:08.052Z,42.8
2022-12-19T06:07:31.045Z,54.7
2022-12-19T06:13:50.902Z,54.7
2022-12-19T06:20:14.067Z,46.2
2022-12-19T06:26:33.949Z,46.2
2022-12-19T06:32:57.015Z,72.6
2022-12-19T06:39:17.204Z,72.6
2022-12-19T06:45:40.113Z,50.4
2022-12-19T06:52:00.849Z,50.4
2022-12-19T06:58:24.429Z,49.7
2022-12-19T07:04:42.925Z,49.7
2022-12-19T07:11:06.013Z,35.9
2022-12-19T07:17:26.163Z,35.9
2022-12-19T07:23:49.055Z,29.4
2022-12-19T07:30:09.098Z,29.4
2022-12-19T07:36:32.091Z,42.1
2022-12-19T07:42:51.941Z,42.1
2022-12-19T07:49:18.267Z,50.2
2022-12-19T07:55:35.143Z,50.2
2022-12-19T08:01:58.117Z,60.2
2022-12-19T08:08:17.924Z,60.2
2022-12-19T08:14:41.098Z,40.6
2022-12-19T08:21:00.920Z,40.6
2022-12-19T08:27:23.984Z,52.5
2022-12-19T08:33:43.938Z,52.5
2022-12-19T08:40:06.909Z,33.7
2022-12-19T08:46:27.083Z,33.7
2022-12-19T08:52:50.098Z,59.3
2022-12-19T08:59:10.020Z,59.3
2022-12-19T09:05:59.208Z,47.4
2022-12-19T09:11:53.050Z,47.4
2022-12-19T09:18:16.098Z,38
2022-12-19T09:34:05.002Z,80.2
2022-12-19T09:40:24.928Z,80.2
2022-12-19T09:46:48.941Z,78.8
2022-12-19T09:53:08.160Z,78.8
2022-12-19T09:59:31.855Z,34.4
2022-12-19T10:06:04.625Z,34.4
2022-12-19T10:12:35.880Z,32.5
2022-12-19T10:18:34.050Z,32.5
2022-12-19T10:25:02.116Z,30.9
2022-12-19T10:31:21.286Z,30.9
2022-12-19T10:37:45.548Z,33.8
2022-12-19T10:44:00.146Z,33.8
2022-12-19T10:50:23.145Z,27.2
2022-12-19T10:56:43.348Z,27.2
2022-12-19T11:03:06.389Z,40.4
2022-12-19T11:09:26.076Z,40.4
2022-12-19T11:17:24.914Z,26.8
2022-12-19T11:29:28.925Z,26.8
2022-12-19T11:30:23.697Z,42.7
2022-12-19T11:34:52.038Z,42.7
2022-12-19T11:41:15.062Z,19.9
2022-12-19T11:47:35.049Z,19.9
2022-12-19T11:53:57.933Z,26.8
2022-12-19T12:00:17.941Z,26.8
2022-12-19T12:06:42.282Z,33.6
2022-12-19T12:15:53.473Z,33.6
2022-12-19T12:26:50.370Z,16.6
2022-12-19T12:31:37.259Z,16.6
2022-12-19T12:35:07.889Z,15.2
2022-12-19T12:38:28.350Z,15.2
2022-12-19T12:44:50.094Z,22.6
2022-12-19T12:51:10.165Z,22.6
2022-12-19T12:57:32.951Z,20.3
2022-12-19T13:03:53.071Z,20.3
2022-12-19T13:10:16.020Z,19.9
2022-12-19T13:16:36.028Z,19.9
2022-12-19T13:22:59.121Z,24.2
2022-12-19T13:29:19.060Z,24.2
2022-12-19T13:36:21.363Z,30.3
2022-12-19T13:42:02.121Z,30.3
2022-12-19T13:48:25.155Z,17.2
2022-12-19T13:54:45.047Z,17.2
2022-12-19T14:01:08.149Z,13
2022-12-19T14:07:34.824Z,13
2022-12-19T14:14:01.757Z,21.1
2022-12-19T14:36:58.462Z,11.4
2022-12-19T14:43:58.379Z,11.4
2022-12-19T14:52:26.052Z,23.2
2022-12-19T14:56:24.691Z,23.2
2022-12-19T15:02:27.742Z,24.6
2022-12-19T15:09:01.550Z,24.6
2022-12-19T15:15:06.945Z,12.6
2022-12-19T15:21:26.980Z,12.6
2022-12-19T15:27:50.090Z,15.3
2022-12-19T15:40:34.046Z,15.7
2022-12-19T15:46:54.381Z,15.7
2022-12-19T15:53:23.516Z,8.4
2022-12-19T15:59:38.489Z,8.4
2022-12-19T16:06:00.345Z,11.9
2022-12-19T16:12:19.942Z,11.9
2022-12-19T16:18:43.920Z,20.5
2022-12-19T16:25:03.986Z,20.5
2022-12-19T16:31:27.021Z,15.3
2022-12-19T16:37:46.942Z,15.3
2022-12-19T16:44:12.841Z,12.6
2022-12-19T16:50:30.064Z,12.6
2022-12-19T16:56:53.001Z,12.1
2022-12-19T17:03:12.999Z,12.1
2022-12-19T17:09:35.989Z,5.4
2022-12-19T17:15:57.190Z,5.4
2022-12-19T17:22:18.930Z,14.8
2022-12-19T17:28:38.951Z,14.8
2022-12-19T17:35:02.213Z,7.8
2022-12-19T17:41:21.929Z,7.8
2022-12-19T17:47:45.372Z,16.5
2022-12-19T17:54:05.145Z,16.5
2022-12-19T18:00:30.538Z,7.6
2022-12-19T18:06:48.019Z,7.6
2022-12-19T18:13:10.941Z,16.1
2022-12-19T18:19:30.905Z,16.1
2022-12-19T18:25:59.395Z,16.9
2022-12-19T18:32:13.914Z,16.9
2022-12-19T18:38:37.068Z,18.7
2022-12-19T18:44:57.056Z,18.7
2022-12-19T18:51:19.916Z,15.9
2022-12-19T18:57:39.975Z,15.9
2022-12-19T19:04:03.190Z,13.9
2022-12-19T19:10:22.964Z,13.9
2022-12-19T19:16:46.179Z,16.5
2022-12-19T19:33:11.676Z,8.5
2022-12-19T19:39:34.428Z,9.9
2022-12-19T19:45:53.977Z,9.9
2022-12-19T19:52:17.013Z,14.4
2022-12-19T19:58:36.913Z,14.4
2022-12-19T20:04:59.959Z,6.6
2022-12-19T20:11:19.930Z,6.6
2022-12-19T20:17:42.971Z,11.4
2022-12-19T20:24:03.034Z,11.4
2022-12-19T20:30:26.015Z,11.8
2022-12-19T20:36:46.010Z,11.8
2022-12-19T20:43:09.021Z,7.5
2022-12-19T20:49:29.013Z,7.5
2022-12-19T20:55:57.506Z,12
2022-12-19T21:02:12.098Z,12
2022-12-19T21:08:34.999Z,21.9
2022-12-19T21:14:55.027Z,21.9
2022-12-19T21:21:17.941Z,7.9
2022-12-19T21:27:37.986Z,7.9
2022-12-19T21:34:01.010Z,8.6
2022-12-19T21:40:20.980Z,8.6
2022-12-19T21:46:44.051Z,6
2022-12-19T21:53:03.985Z,6
2022-12-19T21:59:26.913Z,6.2
2022-12-19T22:05:46.929Z,6.2
2022-12-19T22:12:10.098Z,4.4
2022-12-19T22:18:30.059Z,4.4
2022-12-19T22:24:53.076Z,9.7
2022-12-19T22:31:12.952Z,9.7
2022-12-19T22:37:36.166Z,10.2
2022-12-19T22:43:56.026Z,10.2
2022-12-19T22:50:19.032Z,2.5
2022-12-19T22:56:38.993Z,2.5
2022-12-19T23:22:13.974Z,8.2
2022-12-19T23:28:33.891Z,8.2
2022-12-19T23:34:56.948Z,8.2
2022-12-19T23:41:17.179Z,8.2
2022-12-19T23:47:40.127Z,5.1
2022-12-19T23:53:59.995Z,5.1
